Portada
METAR-TAF:

METAR-TAF

Aeropuertos :

RAF

Tain, Escocia

latitud: 57-49N, longitud: 003-58W, altitud: 4 m

Observación

El informe se hizo hace 47 minutos, a las 09:20 UTC
Viento 6 kt del oeste-noroeste
Temperatura 13°C
Humedad 88%
Presión 1018 hPa
Visibilidad 10 km o más

METAR: EGQA 180920Z AUTO 30006KT 9999 OVC014/// 13/11 Q1018

Hora: 11:07 (10:07 UTC)


TAF: falta

Observaciones y pronósticos meteorológicos de más de 4000 aeropuertos (mensajes METAR y TAF).

Los puntos amarillos y rojos representan las estaciones disponibles.

Ponga el ratón en el punto deseado para ver el nombre de la estación.

Haga clic para ver las observaciones y los pronósticos meteorológicos.

Para cambiar el mapa : haga clic en los botones verdes con una cruz de color negro para hacer un zoom, en el botón verde con un guión para alejar o en las flechas verdes para mapas adyacentes.


METAR-TAF: